createdAt,value
2023-04-16T00:01:11.107Z,93.37
2023-04-16T00:03:38.995Z,93.47
2023-04-16T00:06:07.155Z,93.26
2023-04-16T00:08:35.600Z,93.42
2023-04-16T00:11:04.684Z,93.31
2023-04-16T00:13:32.410Z,93.43
2023-04-16T00:16:00.179Z,93.58
2023-04-16T00:18:27.860Z,93.43
2023-04-16T00:20:55.567Z,93.71
2023-04-16T00:23:25.150Z,93.83
2023-04-16T00:25:53.714Z,93.95
2023-04-16T00:28:22.783Z,93.77
2023-04-16T00:30:50.524Z,94.15
2023-04-16T00:33:18.262Z,93.98
2023-04-16T00:35:47.039Z,94.14
2023-04-16T00:38:15.048Z,94.06
2023-04-16T00:40:42.695Z,94.01
2023-04-16T00:43:10.510Z,94.16
2023-04-16T00:45:39.660Z,94.32
2023-04-16T00:48:07.412Z,94.35
2023-04-16T00:50:35.437Z,94.40
2023-04-16T00:53:04.026Z,94.14
2023-04-16T00:55:32.314Z,94.09
2023-04-16T00:58:00.124Z,94.06
2023-04-16T01:00:27.862Z,93.92
2023-04-16T01:02:57.160Z,93.98
2023-04-16T01:05:24.938Z,93.82
2023-04-16T01:07:53.394Z,93.88
2023-04-16T01:10:21.345Z,93.80
2023-04-16T01:12:49.043Z,93.64
2023-04-16T01:15:16.747Z,93.54
2023-04-16T01:17:45.783Z,93.81
2023-04-16T01:20:14.992Z,93.69
2023-04-16T01:22:44.124Z,93.47
2023-04-16T01:25:15.718Z,93.50
2023-04-16T01:27:43.447Z,93.62
2023-04-16T01:30:11.730Z,93.52
2023-04-16T01:32:39.795Z,93.23
2023-04-16T01:35:07.798Z,93.08
2023-04-16T01:37:35.455Z,93.21
2023-04-16T01:40:04.873Z,93.01
2023-04-16T01:42:33.261Z,92.93
2023-04-16T01:45:00.995Z,93.00
2023-04-16T01:47:28.704Z,92.83
2023-04-16T01:49:56.471Z,92.63
2023-04-16T01:52:24.276Z,92.95
2023-04-16T01:54:51.964Z,92.77
2023-04-16T01:57:20.996Z,92.83
2023-04-16T01:59:48.729Z,92.89
2023-04-16T02:02:17.191Z,92.95
2023-04-16T02:04:46.107Z,92.71
2023-04-16T02:07:14.040Z,92.40
2023-04-16T02:09:42.205Z,92.45
2023-04-16T02:12:11.420Z,92.66
2023-04-16T02:14:40.542Z,92.78
2023-04-16T02:17:08.244Z,92.44
2023-04-16T02:19:36.028Z,92.35
2023-04-16T02:22:03.879Z,92.14
2023-04-16T02:24:31.514Z,92.03
2023-04-16T02:26:59.232Z,91.75
2023-04-16T02:29:26.879Z,91.71
2023-04-16T02:31:56.035Z,91.75
2023-04-16T02:34:23.694Z,91.47
2023-04-16T02:36:51.443Z,91.48
2023-04-16T02:39:19.398Z,91.31
2023-04-16T02:41:47.053Z,91.19
2023-04-16T02:44:14.844Z,91.51
2023-04-16T02:46:42.556Z,91.14
2023-04-16T02:49:11.788Z,91.20
2023-04-16T02:51:39.595Z,90.93
2023-04-16T02:54:07.338Z,90.94
2023-04-16T02:56:35.013Z,91.17
2023-04-16T02:59:02.800Z,91.00
2023-04-16T03:01:30.477Z,91.02
2023-04-16T03:03:58.327Z,90.95
2023-04-16T03:06:27.544Z,90.97
2023-04-16T03:08:55.189Z,91.18
2023-04-16T03:11:23.677Z,91.04
2023-04-16T03:13:51.406Z,90.85
2023-04-16T03:16:19.151Z,90.77
2023-04-16T03:18:46.831Z,90.86
2023-04-16T03:21:14.509Z,90.88
2023-04-16T03:23:43.625Z,90.73
2023-04-16T03:26:11.342Z,90.76
2023-04-16T03:28:39.018Z,90.50
2023-04-16T03:31:06.711Z,90.60
2023-04-16T03:33:34.340Z,90.51
2023-04-16T03:36:01.983Z,90.44
2023-04-16T03:38:29.715Z,90.34
2023-04-16T03:40:58.827Z,89.38
2023-04-16T03:43:26.571Z,89.61
2023-04-16T03:45:54.242Z,89.90
2023-04-16T03:48:21.971Z,89.48
2023-04-16T03:50:49.678Z,89.60
2023-04-16T03:53:17.358Z,89.22
2023-04-16T03:55:45.094Z,89.54
2023-04-16T03:58:14.137Z,89.39
2023-04-16T04:00:43.630Z,89.42
2023-04-16T04:03:11.534Z,89.50
2023-04-16T04:05:40.467Z,89.33
2023-04-16T04:08:08.642Z,89.24
2023-04-16T04:10:37.348Z,89.10
2023-04-16T04:13:06.236Z,89.16
2023-04-16T04:15:35.376Z,88.95
2023-04-16T04:18:03.127Z,89.05
2023-04-16T04:20:30.849Z,89.06
2023-04-16T04:22:58.886Z,88.83
2023-04-16T04:25:26.924Z,88.87
2023-04-16T04:27:54.684Z,88.75
2023-04-16T04:30:22.422Z,89.00
2023-04-16T04:32:51.639Z,89.06
2023-04-16T04:35:19.399Z,89.23
2023-04-16T04:37:47.076Z,88.81
2023-04-16T04:40:14.877Z,88.88
2023-04-16T04:42:42.571Z,88.80
2023-04-16T04:45:11.535Z,89.14
2023-04-16T04:47:39.339Z,89.24
2023-04-16T04:50:09.668Z,89.17
2023-04-16T04:52:37.504Z,89.54
2023-04-16T04:55:05.712Z,89.66
2023-04-16T04:57:33.445Z,89.52
2023-04-16T05:00:03.355Z,89.55
2023-04-16T05:02:31.206Z,89.38
2023-04-16T05:04:59.053Z,89.52
2023-04-16T05:07:28.182Z,89.21
2023-04-16T05:09:56.021Z,89.29
2023-04-16T05:12:23.732Z,89.14
2023-04-16T05:14:51.395Z,89.40
2023-04-16T05:17:19.126Z,89.40
2023-04-16T05:19:46.880Z,89.53
2023-04-16T05:22:14.501Z,89.60
2023-04-16T05:24:43.562Z,89.60
2023-04-16T05:27:11.300Z,89.66
2023-04-16T05:29:39.006Z,89.65
2023-04-16T05:32:06.634Z,89.56
2023-04-16T05:34:34.347Z,89.46
2023-04-16T05:37:02.203Z,89.24
2023-04-16T05:39:29.855Z,89.46
2023-04-16T05:41:58.968Z,89.57
2023-04-16T05:44:27.067Z,89.01
2023-04-16T05:46:54.788Z,88.90
2023-04-16T05:49:22.552Z,88.73
2023-04-16T05:51:51.004Z,88.57
2023-04-16T05:54:18.886Z,88.54
2023-04-16T05:56:46.651Z,88.57
2023-04-16T05:59:15.658Z,88.67
2023-04-16T06:01:43.369Z,88.70
2023-04-16T06:04:11.256Z,88.46
2023-04-16T06:06:40.125Z,88.45
2023-04-16T06:09:07.964Z,88.01
2023-04-16T06:11:36.552Z,88.02
2023-04-16T06:14:04.208Z,87.65
2023-04-16T06:16:33.378Z,87.62
2023-04-16T06:19:01.238Z,87.64
2023-04-16T06:21:29.617Z,87.74
2023-04-16T06:23:57.329Z,87.46
2023-04-16T06:26:25.029Z,87.15
2023-04-16T06:28:52.690Z,87.24
2023-04-16T06:31:20.726Z,87.41
2023-04-16T06:33:49.964Z,87.67
2023-04-16T06:36:17.804Z,87.36
2023-04-16T06:38:45.759Z,87.22
2023-04-16T06:41:14.305Z,87.35
2023-04-16T06:43:41.986Z,86.80
2023-04-16T06:46:09.696Z,86.74
2023-04-16T06:48:37.397Z,86.21
2023-04-16T06:51:06.609Z,85.87
2023-04-16T06:53:34.301Z,85.67
2023-04-16T06:56:01.949Z,85.09
2023-04-16T06:58:29.678Z,85.45
2023-04-16T07:00:57.339Z,85.39
2023-04-16T07:03:25.238Z,85.88
2023-04-16T07:05:52.976Z,85.74
2023-04-16T07:08:22.057Z,85.83
2023-04-16T07:10:49.770Z,85.63
2023-04-16T07:13:18.531Z,84.95
2023-04-16T07:15:46.148Z,84.40
2023-04-16T07:18:13.903Z,84.46
2023-04-16T07:20:41.672Z,84.79
2023-04-16T07:23:09.354Z,85.03
2023-04-16T07:25:38.454Z,84.47
2023-04-16T07:28:06.049Z,84.76
2023-04-16T07:30:34.655Z,84.78
2023-04-16T07:33:02.542Z,84.60
2023-04-16T07:35:30.795Z,85.04
2023-04-16T07:37:58.452Z,84.80
2023-04-16T07:40:26.264Z,84.27
2023-04-16T07:42:56.091Z,84.36
2023-04-16T07:45:24.965Z,84.39
2023-04-16T07:47:52.673Z,84.02
2023-04-16T07:50:20.414Z,84.40
2023-04-16T07:52:48.100Z,84.08
2023-04-16T07:55:15.847Z,83.86
2023-04-16T07:57:43.610Z,83.35
2023-04-16T08:00:13.635Z,83.18
2023-04-16T08:02:41.616Z,83.14
2023-04-16T08:05:09.633Z,83.27
2023-04-16T08:07:37.536Z,83.02
2023-04-16T08:10:06.330Z,83.36
2023-04-16T08:12:34.059Z,83.20
2023-04-16T08:15:01.775Z,83.05
2023-04-16T08:17:30.993Z,83.16
2023-04-16T08:19:58.694Z,83.28
2023-04-16T08:22:26.351Z,82.41
2023-04-16T08:24:54.087Z,82.01
2023-04-16T08:27:21.773Z,82.05
2023-04-16T08:29:49.599Z,81.56
2023-04-16T08:32:17.261Z,81.46
2023-04-16T08:34:46.471Z,81.56
2023-04-16T08:37:14.165Z,81.41
2023-04-16T08:39:41.911Z,81.71
2023-04-16T08:42:14.159Z,80.78
2023-04-16T08:44:46.427Z,80.88
2023-04-16T08:47:16.753Z,81.19
2023-04-16T08:49:46.732Z,80.42
2023-04-16T08:52:17.171Z,80.39
2023-04-16T08:54:56.533Z,79.95
2023-04-16T08:57:25.508Z,79.91
2023-04-16T08:59:53.334Z,80.70
2023-04-16T09:02:21.246Z,80.79
2023-04-16T09:04:51.752Z,80.89
2023-04-16T09:07:20.868Z,80.19
2023-04-16T09:09:49.753Z,80.16
2023-04-16T09:12:18.613Z,79.89
2023-04-16T09:14:49.705Z,80.15
2023-04-16T09:17:17.908Z,80.14
2023-04-16T09:19:45.769Z,80.79
2023-04-16T09:22:14.910Z,79.68
2023-04-16T09:24:42.936Z,80.01
2023-04-16T09:27:11.087Z,79.44
2023-04-16T09:29:40.149Z,79.47
2023-04-16T09:32:09.692Z,79.46
2023-04-16T09:34:55.762Z,78.86
2023-04-16T09:37:25.825Z,78.52
2023-04-16T09:39:58.295Z,78.43
2023-04-16T09:42:27.395Z,78.36
2023-04-16T09:44:57.810Z,77.99
2023-04-16T09:47:28.388Z,78.20
2023-04-16T09:50:00.215Z,77.87
2023-04-16T09:52:29.312Z,77.54
2023-04-16T09:54:56.994Z,77.06
2023-04-16T09:57:26.143Z,77.11
2023-04-16T09:59:54.444Z,76.55
2023-04-16T10:02:23.288Z,76.92
2023-04-16T10:04:52.078Z,77.00
2023-04-16T10:07:20.612Z,76.37
2023-04-16T10:09:50.570Z,76.30
2023-04-16T10:12:18.292Z,76.12
2023-04-16T10:14:48.375Z,76.65
2023-04-16T10:17:17.906Z,75.59
2023-04-16T10:19:45.804Z,75.79
2023-04-16T10:22:13.808Z,76.19
2023-04-16T10:24:42.320Z,76.23
2023-04-16T10:27:12.316Z,77.29
2023-04-16T10:29:40.093Z,75.83
2023-04-16T10:32:07.866Z,75.35
2023-04-16T10:34:36.430Z,74.73
2023-04-16T10:37:04.195Z,74.80
2023-04-16T10:39:33.000Z,75.10
2023-04-16T10:42:12.988Z,74.50
2023-04-16T10:44:44.290Z,74.73
2023-04-16T10:47:13.880Z,75.32
2023-04-16T10:49:43.941Z,74.72
2023-04-16T10:52:13.148Z,74.29
2023-04-16T10:54:41.328Z,74.54
2023-04-16T10:57:15.999Z,74.30
2023-04-16T10:59:44.873Z,74.39
2023-04-16T11:02:15.159Z,74.56
2023-04-16T11:04:44.321Z,74.01
2023-04-16T11:07:20.606Z,73.61
2023-04-16T11:09:55.110Z,73.17
2023-04-16T11:12:27.210Z,72.61
2023-04-16T11:14:56.025Z,73.27
2023-04-16T11:17:23.751Z,72.53
2023-04-16T11:19:53.703Z,72.93
2023-04-16T11:22:21.662Z,72.60
2023-04-16T11:24:55.341Z,72.89
2023-04-16T11:27:24.734Z,72.73
2023-04-16T11:29:59.952Z,72.63
2023-04-16T11:32:27.706Z,73.29
2023-04-16T11:34:55.431Z,73.03
2023-04-16T11:37:28.045Z,72.07
2023-04-16T11:39:55.734Z,71.83
2023-04-16T11:42:24.790Z,70.58
2023-04-16T11:44:54.391Z,70.81
2023-04-16T11:47:22.315Z,72.29
2023-04-16T11:49:50.200Z,72.05
2023-04-16T11:52:28.302Z,72.23
2023-04-16T11:54:56.446Z,71.30
2023-04-16T11:57:29.889Z,70.31
2023-04-16T12:00:03.050Z,70.18
2023-04-16T12:02:39.033Z,71.58
2023-04-16T12:05:08.495Z,69.37
2023-04-16T12:07:45.939Z,69.45
2023-04-16T12:10:14.078Z,68.77
2023-04-16T12:12:43.135Z,68.89
2023-04-16T12:15:11.180Z,68.10
2023-04-16T12:17:39.349Z,68.80
2023-04-16T12:20:11.094Z,67.67
2023-04-16T12:22:40.804Z,68.62
2023-04-16T12:25:11.882Z,68.37
2023-04-16T12:27:51.336Z,67.66
2023-04-16T12:30:23.398Z,66.41
2023-04-16T12:32:52.974Z,65.89
2023-04-16T12:35:35.625Z,66.81
2023-04-16T12:38:03.576Z,65.79
2023-04-16T12:40:31.334Z,66.17
2023-04-16T12:43:00.397Z,65.08
2023-04-16T12:45:28.090Z,64.60
2023-04-16T12:47:55.938Z,65.03
2023-04-16T12:50:23.819Z,65.35
2023-04-16T12:52:51.589Z,64.76
2023-04-16T12:55:19.433Z,64.76
2023-04-16T12:57:48.884Z,64.60
2023-04-16T13:00:18.545Z,63.73
2023-04-16T13:02:46.414Z,63.36
2023-04-16T13:05:16.273Z,65.04
2023-04-16T13:07:44.196Z,64.83
2023-04-16T13:10:11.845Z,64.88
2023-04-16T13:12:39.602Z,64.72
2023-04-16T13:15:08.374Z,64.75
2023-04-16T13:17:37.526Z,63.28
2023-04-16T13:20:05.868Z,63.82
2023-04-16T13:22:33.524Z,63.81
2023-04-16T13:25:01.153Z,63.61
2023-04-16T13:27:28.754Z,63.53
2023-04-16T13:29:56.581Z,63.81
2023-04-16T13:32:24.400Z,64.46
2023-04-16T13:34:53.463Z,65.27
2023-04-16T13:37:21.135Z,64.94
2023-04-16T13:39:48.823Z,64.88
2023-04-16T13:42:16.844Z,64.62
2023-04-16T13:44:46.695Z,64.73
2023-04-16T13:47:14.324Z,64.29
2023-04-16T13:49:42.043Z,63.69
2023-04-16T13:52:11.149Z,63.00
2023-04-16T13:54:38.864Z,63.60
2023-04-16T13:57:06.619Z,62.66
2023-04-16T13:59:34.329Z,63.00
2023-04-16T14:02:02.125Z,62.18
2023-04-16T14:04:29.957Z,61.12
2023-04-16T14:06:57.690Z,63.15
2023-04-16T14:09:27.308Z,67.43
2023-04-16T14:11:55.142Z,68.79
2023-04-16T14:14:22.881Z,69.73
2023-04-16T14:16:50.749Z,70.65
2023-04-16T14:19:18.607Z,71.66
2023-04-16T14:21:46.347Z,72.18
2023-04-16T14:24:14.060Z,72.49
2023-04-16T14:26:44.058Z,74.49
2023-04-16T14:29:11.975Z,76.26
2023-04-16T14:31:39.819Z,78.30
2023-04-16T14:34:07.502Z,78.57
2023-04-16T14:37:38.532Z,79.46
2023-04-16T14:40:08.956Z,80.23
2023-04-16T14:42:37.554Z,81.00
2023-04-16T14:45:06.883Z,80.95
2023-04-16T14:47:34.929Z,81.57
2023-04-16T14:50:03.247Z,81.15
2023-04-16T14:52:32.121Z,80.30
2023-04-16T14:55:01.173Z,80.51
2023-04-16T14:57:28.812Z,79.94
2023-04-16T14:59:56.583Z,80.12
2023-04-16T15:02:24.451Z,80.37
2023-04-16T15:04:52.214Z,80.74
2023-04-16T15:07:19.949Z,80.35
2023-04-16T15:09:47.610Z,80.24
2023-04-16T15:12:19.024Z,80.58
2023-04-16T15:14:46.829Z,80.23
2023-04-16T15:17:14.491Z,80.62
2023-04-16T15:19:42.239Z,80.62
2023-04-16T15:22:09.905Z,80.25
2023-04-16T15:24:37.677Z,80.31
2023-04-16T15:27:07.010Z,79.71
2023-04-16T15:29:36.775Z,80.09
2023-04-16T15:32:04.603Z,80.33
2023-04-16T15:34:32.293Z,80.10
2023-04-16T15:36:59.937Z,78.99
2023-04-16T15:39:27.648Z,79.44
2023-04-16T15:42:01.257Z,80.14
2023-04-16T15:44:31.755Z,80.20
2023-04-16T15:47:01.223Z,80.44
2023-04-16T15:49:29.001Z,80.18
2023-04-16T15:51:56.726Z,79.73
2023-04-16T15:54:24.714Z,79.71
2023-04-16T15:56:52.493Z,79.67
2023-04-16T15:59:20.181Z,79.63
2023-04-16T16:01:47.923Z,80.30
2023-04-16T16:04:17.166Z,79.87
2023-04-16T16:06:45.105Z,79.35
2023-04-16T16:09:12.968Z,79.32
2023-04-16T16:11:41.685Z,78.90
2023-04-16T16:14:09.355Z,78.89
2023-04-16T16:16:37.114Z,78.96
2023-04-16T16:19:04.773Z,79.39
2023-04-16T16:21:33.874Z,79.68
2023-04-16T16:24:01.749Z,79.71
2023-04-16T16:26:29.448Z,79.59
2023-04-16T16:28:58.066Z,79.77
2023-04-16T16:31:25.989Z,79.75
2023-04-16T16:33:53.756Z,79.58
2023-04-16T16:36:21.411Z,80.09
2023-04-16T16:38:50.551Z,80.09
2023-04-16T16:41:18.289Z,80.05
2023-04-16T16:43:46.022Z,80.21
2023-04-16T16:46:13.758Z,80.10
2023-04-16T16:48:41.459Z,80.58
2023-04-16T16:51:11.039Z,80.44
2023-04-16T16:53:38.704Z,80.40
2023-04-16T16:56:07.991Z,80.57
2023-04-16T16:58:35.788Z,80.38
2023-04-16T17:01:03.795Z,80.20
2023-04-16T17:03:31.602Z,79.66
2023-04-16T17:06:00.232Z,79.94
2023-04-16T17:08:28.912Z,79.67
2023-04-16T17:10:56.606Z,78.69
2023-04-16T17:13:25.757Z,77.76
2023-04-16T17:15:53.476Z,77.98
2023-04-16T17:18:21.114Z,77.62
2023-04-16T17:20:48.800Z,77.65
2023-04-16T17:23:16.533Z,76.29
2023-04-16T17:25:44.234Z,76.15
2023-04-16T17:28:11.931Z,75.56
2023-04-16T17:30:40.988Z,72.69
2023-04-16T17:33:08.655Z,71.57
2023-04-16T17:35:36.457Z,71.31
2023-04-16T17:38:04.176Z,69.30
2023-04-16T17:40:31.873Z,69.35
2023-04-16T17:42:59.550Z,69.32
2023-04-16T17:45:27.440Z,69.15
2023-04-16T17:47:56.519Z,69.37
2023-04-16T17:50:24.539Z,69.49
2023-04-16T17:52:52.211Z,69.34
2023-04-16T17:55:19.901Z,69.32
2023-04-16T17:57:47.893Z,69.33
2023-04-16T18:00:16.293Z,69.12
2023-04-16T18:02:44.152Z,69.79
2023-04-16T18:05:13.471Z,69.71
2023-04-16T18:07:41.299Z,69.89
2023-04-16T18:10:10.677Z,69.96
2023-04-16T18:12:38.431Z,70.29
2023-04-16T18:15:07.114Z,70.13
2023-04-16T18:17:34.844Z,70.56
2023-04-16T18:20:03.723Z,70.50
2023-04-16T18:22:32.855Z,70.48
2023-04-16T18:25:00.576Z,70.35
2023-04-16T18:27:28.824Z,70.54
2023-04-16T18:29:56.689Z,70.84
2023-04-16T18:32:24.597Z,70.98
2023-04-16T18:34:52.745Z,70.77
2023-04-16T18:37:20.666Z,71.07
2023-04-16T18:39:49.863Z,71.31
2023-04-16T18:42:17.657Z,71.15
2023-04-16T18:44:45.322Z,71.41
2023-04-16T18:47:12.959Z,71.63
2023-04-16T18:49:40.823Z,71.29
2023-04-16T18:52:08.754Z,71.10
2023-04-16T18:54:36.551Z,71.77
2023-04-16T18:57:05.780Z,71.62
2023-04-16T18:59:33.775Z,71.74
2023-04-16T19:02:01.595Z,73.26
2023-04-16T19:04:29.481Z,73.95
2023-04-16T19:06:57.179Z,74.75
2023-04-16T19:09:26.365Z,75.62
2023-04-16T19:11:54.112Z,76.09
2023-04-16T19:14:23.355Z,76.70
2023-04-16T19:16:50.985Z,77.38
2023-04-16T19:19:18.664Z,77.92
2023-04-16T19:21:46.464Z,78.28
2023-04-16T19:24:14.148Z,78.60
2023-04-16T19:26:41.960Z,78.76
2023-04-16T19:29:09.950Z,79.18
2023-04-16T19:31:39.334Z,79.53
2023-04-16T19:34:07.433Z,79.70
2023-04-16T19:36:35.128Z,79.58
2023-04-16T19:39:03.734Z,80.23
2023-04-16T19:41:31.488Z,80.10
2023-04-16T19:43:59.202Z,79.94
2023-04-16T19:46:26.881Z,80.19
2023-04-16T19:48:56.799Z,80.37
2023-04-16T19:51:24.513Z,80.52
2023-04-16T19:53:52.655Z,80.58
2023-04-16T19:56:20.552Z,80.36
2023-04-16T19:58:48.321Z,80.19
2023-04-16T20:01:16.333Z,80.22
2023-04-16T20:03:44.215Z,79.90
2023-04-16T20:06:13.514Z,79.95
2023-04-16T20:08:41.476Z,79.89
2023-04-16T20:11:09.916Z,80.23
2023-04-16T20:13:38.839Z,80.18
2023-04-16T20:16:09.282Z,80.43
2023-04-16T20:18:41.282Z,80.27
2023-04-16T20:21:09.009Z,80.51
2023-04-16T20:23:38.192Z,80.43
2023-04-16T20:26:05.998Z,80.37
2023-04-16T20:28:33.718Z,81.16
2023-04-16T20:31:01.450Z,81.17
2023-04-16T20:33:29.214Z,81.49
2023-04-16T20:35:57.196Z,81.50
2023-04-16T20:38:25.081Z,81.09
2023-04-16T20:41:06.227Z,81.58
2023-04-16T20:43:38.372Z,81.38
2023-04-16T20:46:06.291Z,81.61
2023-04-16T20:48:34.014Z,81.33
2023-04-16T20:51:02.808Z,81.19
2023-04-16T20:53:31.442Z,81.26
2023-04-16T20:56:01.065Z,81.31
2023-04-16T20:58:28.880Z,81.63
2023-04-16T21:00:57.548Z,81.45
2023-04-16T21:03:25.779Z,81.86
2023-04-16T21:05:54.511Z,81.54
2023-04-16T21:08:22.643Z,81.76
2023-04-16T21:10:50.952Z,81.79
2023-04-16T21:13:20.727Z,81.61
2023-04-16T21:15:48.579Z,81.77
2023-04-16T21:18:17.023Z,81.64
2023-04-16T21:20:44.773Z,81.66
2023-04-16T21:23:12.559Z,81.51
2023-04-16T21:25:40.229Z,81.10
2023-04-16T21:28:07.930Z,81.03
2023-04-16T21:30:38.258Z,81.36
2023-04-16T21:33:06.613Z,80.75
2023-04-16T21:35:34.617Z,81.09
2023-04-16T21:38:02.315Z,81.15
2023-04-16T21:40:30.022Z,81.22
2023-04-16T21:42:57.657Z,81.60
2023-04-16T21:45:25.362Z,81.22
2023-04-16T21:47:54.474Z,81.25
2023-04-16T21:50:22.232Z,81.48
2023-04-16T21:52:49.909Z,81.76
2023-04-16T21:55:17.716Z,81.90
2023-04-16T21:57:45.386Z,81.93
2023-04-16T22:00:14.356Z,81.76
2023-04-16T22:02:43.032Z,81.96
2023-04-16T22:05:12.491Z,81.66
2023-04-16T22:07:40.558Z,81.79
2023-04-16T22:10:09.871Z,81.95
2023-04-16T22:12:39.823Z,81.93
2023-04-16T22:15:09.160Z,81.63
2023-04-16T22:17:36.977Z,82.26
2023-04-16T22:20:08.527Z,82.26
2023-04-16T22:22:37.639Z,82.46
2023-04-16T22:25:05.966Z,82.50
2023-04-16T22:27:33.960Z,82.74
2023-04-16T22:30:01.950Z,82.42
2023-04-16T22:32:30.937Z,82.76
2023-04-16T22:34:58.718Z,82.92
2023-04-16T22:37:26.575Z,82.60
2023-04-16T22:39:55.780Z,82.59
2023-04-16T22:42:24.201Z,82.92
2023-04-16T22:44:51.983Z,82.65
2023-04-16T22:47:19.747Z,82.50
2023-04-16T22:49:47.687Z,82.58
2023-04-16T22:52:15.419Z,82.70
2023-04-16T22:54:43.048Z,82.51
2023-04-16T22:57:12.107Z,82.65
2023-04-16T22:59:39.808Z,82.80
2023-04-16T23:02:07.539Z,82.74
2023-04-16T23:04:35.397Z,83.00
2023-04-16T23:07:03.222Z,82.61
2023-04-16T23:09:30.996Z,82.37
2023-04-16T23:11:58.743Z,82.62
2023-04-16T23:14:27.862Z,83.05
2023-04-16T23:16:55.576Z,82.77
2023-04-16T23:19:23.319Z,83.23
2023-04-16T23:21:51.011Z,82.93
2023-04-16T23:24:18.712Z,82.80
2023-04-16T23:26:46.447Z,83.29
2023-04-16T23:29:14.173Z,83.11
2023-04-16T23:31:43.242Z,83.05
2023-04-16T23:34:11.348Z,82.82
2023-04-16T23:36:39.248Z,83.04
2023-04-16T23:39:06.923Z,82.97
2023-04-16T23:41:34.615Z,82.87
2023-04-16T23:44:02.397Z,83.07
2023-04-16T23:46:30.131Z,83.08
2023-04-16T23:48:59.302Z,82.97
2023-04-16T23:51:27.009Z,82.68
2023-04-16T23:53:54.662Z,82.67
2023-04-16T23:56:22.380Z,82.36
2023-04-16T23:58:50.066Z,82.54
